Lakeville, NY

10:19 AM EDT on September 01, 2015 (GMT -0400)
Shooting Star Farm | | Change Station
CLOSE
Current Station
Personal Weather Station
Location: Livonia, NY
Elevation: 909 ft
Nearby Weather Stations

Elev 909 ft 42.84 °N, 77.68 °W | Updated 19 minutes ago

Mostly Cloudy
Mostly Cloudy
73.0 °F
Feels Like 71 °F
N
1.0
Wind Variable Wind from NW
Gusts 1.0 mph

Today
High -- | Low -- °F
--% Chance of Precip.
Yesterday
High -- | Low -- °F
Precip. -- in
6:35 AM 7:45 PM
Waning Gibbous, 88% visible
Pressure 30.14 in
Visibility 6.0 miles
Clouds Scattered Clouds 2100 ft
Heat Index 71 °F
Dew Point 69 °F
Humidity 88%
Rainfall 0.00 in
Snow Depth Not available.
UV 3 out of 12
Pollen 10.10 out of 12
Air Quality Not available.
Flu Activity Not available.
METAR KDSV 011354Z AUTO 13005KT 6SM HZ SCT021 22/19 A3012 RMK AO2 SLP204 T02220189
Pressure 30.14 in
Visibility 6.0 miles
Clouds Scattered Clouds 2100 ft
Heat Index 71 °F
Dew Point 69 °F
Humidity 88%
Rainfall 0.00 in
Snow Depth Not available.
UV 3 out of 12
Pollen 10.10 out of 12
Air Quality Not available.
Flu Activity Not available.
METAR KDSV 011354Z AUTO 13005KT 6SM HZ SCT021 22/19 A3012 RMK AO2 SLP204 T02220189

10-Day Weather Forecast

×

Almanac

Astronomy

Sep. 01, 2015 Rise Set
Actual Time
Civil Twilight
Nautical Twilight
Astronomical Twilight
Moon
Length of Visible Light
Length of Day
Tomorrow will be .
, % of the Moon is Illuminated

Today's Extremes

State Highs State Lows

Community

WunderPhotos

Upload Photos

1,851,512 photos uploaded!

WunderBlogs® & News

Nearby

Air Quality

  Air Quality AQ Index Pollutant
Not available.

Snow Depth

Station Depth Elevation

Earthquake Activity

City Distance Mag. Time & Date
Minimum magnitude displayed is 2.5.

Coastal Water Temperatures

Place Temperature

Stations

Nearby Weather Stations

Station Location Temp. Windchill Dew Point Humidity Wind Precip. Elev Updated Type